sensor_id;sensor_type;location;lat;lon;timestamp;noise_LAeq;noise_LA_min;noise_LA_max;noise_LA01;noise_LA95
66274;Laerm;58450;52.150;4.466;2022-12-07T00:01:51;38.30;35.54;50.44;;
66274;Laerm;58450;52.150;4.466;2022-12-07T00:04:18;39.02;34.83;59.57;;
66274;Laerm;58450;52.150;4.466;2022-12-07T00:06:50;38.24;34.96;52.14;;
66274;Laerm;58450;52.150;4.466;2022-12-07T00:09:18;49.65;35.83;66.35;;
66274;Laerm;58450;52.150;4.466;2022-12-07T00:11:48;38.35;34.95;52.65;;
66274;Laerm;58450;52.150;4.466;2022-12-07T00:14:16;39.49;35.51;51.17;;
66274;Laerm;58450;52.150;4.466;2022-12-07T00:16:44;44.08;33.93;68.83;;
66274;Laerm;58450;52.150;4.466;2022-12-07T00:19:13;37.89;34.97;51.37;;
66274;Laerm;58450;52.150;4.466;2022-12-07T00:21:41;46.65;35.95;67.33;;
66274;Laerm;58450;52.150;4.466;2022-12-07T00:24:10;43.24;35.38;55.23;;
66274;Laerm;58450;52.150;4.466;2022-12-07T00:26:39;39.55;35.06;48.91;;
66274;Laerm;58450;52.150;4.466;2022-12-07T00:29:11;38.22;35.18;50.44;;
66274;Laerm;58450;52.150;4.466;2022-12-07T00:31:38;44.74;34.78;62.16;;
66274;Laerm;58450;52.150;4.466;2022-12-07T00:34:07;48.91;35.42;67.33;;
66274;Laerm;58450;52.150;4.466;2022-12-07T00:36:36;42.07;35.66;57.35;;
66274;Laerm;58450;52.150;4.466;2022-12-07T00:39:03;43.26;36.20;66.82;;
66274;Laerm;58450;52.150;4.466;2022-12-07T00:41:30;38.94;36.16;46.29;;
66274;Laerm;58450;52.150;4.466;2022-12-07T00:43:58;41.60;35.75;54.87;;
66274;Laerm;58450;52.150;4.466;2022-12-07T00:46:26;44.22;36.99;63.14;;
66274;Laerm;58450;52.150;4.466;2022-12-07T00:48:54;39.18;35.74;50.17;;
66274;Laerm;58450;52.150;4.466;2022-12-07T00:51:22;46.65;34.87;65.88;;
66274;Laerm;58450;52.150;4.466;2022-12-07T00:53:52;38.40;34.75;47.73;;
66274;Laerm;58450;52.150;4.466;2022-12-07T00:56:21;38.18;35.13;48.94;;
66274;Laerm;58450;52.150;4.466;2022-12-07T00:58:53;38.18;34.93;50.00;;
66274;Laerm;58450;52.150;4.466;2022-12-07T01:01:22;38.11;34.71;50.78;;
66274;Laerm;58450;52.150;4.466;2022-12-07T01:03:49;49.26;34.95;69.57;;
66274;Laerm;58450;52.150;4.466;2022-12-07T01:06:18;38.68;35.14;54.39;;
66274;Laerm;58450;52.150;4.466;2022-12-07T01:08:46;38.59;35.01;47.84;;
66274;Laerm;58450;52.150;4.466;2022-12-07T01:11:17;38.32;34.82;53.24;;
66274;Laerm;58450;52.150;4.466;2022-12-07T01:13:44;38.12;34.79;55.73;;
66274;Laerm;58450;52.150;4.466;2022-12-07T01:16:14;38.07;34.51;58.71;;
66274;Laerm;58450;52.150;4.466;2022-12-07T01:18:45;37.44;34.56;48.61;;
66274;Laerm;58450;52.150;4.466;2022-12-07T01:21:14;37.73;34.32;50.96;;
66274;Laerm;58450;52.150;4.466;2022-12-07T01:23:43;38.06;34.12;48.50;;
66274;Laerm;58450;52.150;4.466;2022-12-07T01:26:12;45.29;35.01;63.01;;
66274;Laerm;58450;52.150;4.466;2022-12-07T01:28:41;38.32;35.16;44.24;;
66274;Laerm;58450;52.150;4.466;2022-12-07T01:31:10;42.05;35.34;62.81;;
66274;Laerm;58450;52.150;4.466;2022-12-07T01:33:39;43.08;36.56;53.97;;
66274;Laerm;58450;52.150;4.466;2022-12-07T01:36:08;56.12;35.18;67.32;;
66274;Laerm;58450;52.150;4.466;2022-12-07T01:38:40;46.50;34.70;61.40;;
66274;Laerm;58450;52.150;4.466;2022-12-07T01:41:08;51.02;34.50;72.24;;
66274;Laerm;58450;52.150;4.466;2022-12-07T01:43:35;37.92;34.54;51.84;;
66274;Laerm;58450;52.150;4.466;2022-12-07T01:46:04;43.35;34.43;61.09;;
66274;Laerm;58450;52.150;4.466;2022-12-07T01:48:36;40.76;34.32;64.53;;
66274;Laerm;58450;52.150;4.466;2022-12-07T01:51:08;40.76;33.99;61.36;;
66274;Laerm;58450;52.150;4.466;2022-12-07T01:53:38;39.07;35.02;57.95;;
66274;Laerm;58450;52.150;4.466;2022-12-07T01:56:09;45.28;34.55;65.62;;
66274;Laerm;58450;52.150;4.466;2022-12-07T01:58:38;42.14;34.81;64.47;;
66274;Laerm;58450;52.150;4.466;2022-12-07T02:01:06;37.66;34.42;57.51;;
66274;Laerm;58450;52.150;4.466;2022-12-07T02:03:38;39.31;35.05;58.32;;
66274;Laerm;58450;52.150;4.466;2022-12-07T02:06:06;38.71;35.55;56.95;;
66274;Laerm;58450;52.150;4.466;2022-12-07T02:08:34;42.82;37.38;58.60;;
66274;Laerm;58450;52.150;4.466;2022-12-07T02:11:03;45.72;38.44;60.43;;
66274;Laerm;58450;52.150;4.466;2022-12-07T02:13:33;48.44;37.46;68.67;;
66274;Laerm;58450;52.150;4.466;2022-12-07T02:16:12;46.76;36.31;70.26;;
66274;Laerm;58450;52.150;4.466;2022-12-07T02:18:52;42.03;36.46;55.26;;
66274;Laerm;58450;52.150;4.466;2022-12-07T02:21:29;43.55;35.75;62.71;;
66274;Laerm;58450;52.150;4.466;2022-12-07T02:24:14;42.78;36.60;62.75;;
66274;Laerm;58450;52.150;4.466;2022-12-07T02:29:58;42.72;37.34;56.91;;
66274;Laerm;58450;52.150;4.466;2022-12-07T02:32:34;43.90;37.93;53.38;;
66274;Laerm;58450;52.150;4.466;2022-12-07T02:35:09;41.94;36.00;53.36;;
66274;Laerm;58450;52.150;4.466;2022-12-07T02:37:42;41.44;36.45;52.79;;
66274;Laerm;58450;52.150;4.466;2022-12-07T02:40:16;42.98;35.84;64.41;;
66274;Laerm;58450;52.150;4.466;2022-12-07T02:42:49;40.29;35.83;52.76;;
66274;Laerm;58450;52.150;4.466;2022-12-07T02:45:25;39.53;35.73;52.21;;
66274;Laerm;58450;52.150;4.466;2022-12-07T02:47:56;40.54;35.83;53.39;;
66274;Laerm;58450;52.150;4.466;2022-12-07T02:50:25;40.10;35.77;58.14;;
66274;Laerm;58450;52.150;4.466;2022-12-07T02:52:53;40.50;35.46;52.51;;
66274;Laerm;58450;52.150;4.466;2022-12-07T02:55:26;39.29;35.07;53.17;;
66274;Laerm;58450;52.150;4.466;2022-12-07T02:58:07;38.79;35.18;52.02;;
66274;Laerm;58450;52.150;4.466;2022-12-07T03:00:48;39.32;35.75;51.66;;
66274;Laerm;58450;52.150;4.466;2022-12-07T03:03:18;43.06;36.16;64.92;;
66274;Laerm;58450;52.150;4.466;2022-12-07T03:05:55;40.38;35.28;58.99;;
66274;Laerm;58450;52.150;4.466;2022-12-07T03:08:31;45.78;35.50;70.69;;
66274;Laerm;58450;52.150;4.466;2022-12-07T03:11:04;39.33;35.57;49.94;;
66274;Laerm;58450;52.150;4.466;2022-12-07T03:13:35;40.76;35.74;55.94;;
66274;Laerm;58450;52.150;4.466;2022-12-07T03:16:10;51.49;36.10;66.79;;
66274;Laerm;58450;52.150;4.466;2022-12-07T03:18:45;43.19;36.44;51.46;;
66274;Laerm;58450;52.150;4.466;2022-12-07T03:21:16;39.98;35.61;50.82;;
66274;Laerm;58450;52.150;4.466;2022-12-07T03:23:48;38.62;35.28;49.04;;
66274;Laerm;58450;52.150;4.466;2022-12-07T03:26:18;45.82;35.59;62.16;;
66274;Laerm;58450;52.150;4.466;2022-12-07T03:28:52;39.44;35.12;55.42;;
66274;Laerm;58450;52.150;4.466;2022-12-07T03:31:25;43.63;35.60;55.16;;
66274;Laerm;58450;52.150;4.466;2022-12-07T03:33:59;38.75;34.76;52.62;;
66274;Laerm;58450;52.150;4.466;2022-12-07T03:36:31;38.68;35.07;51.33;;
66274;Laerm;58450;52.150;4.466;2022-12-07T03:39:06;38.82;35.18;50.92;;
66274;Laerm;58450;52.150;4.466;2022-12-07T03:41:37;40.88;35.40;61.31;;
66274;Laerm;58450;52.150;4.466;2022-12-07T03:44:06;40.05;35.84;57.90;;
66274;Laerm;58450;52.150;4.466;2022-12-07T03:46:42;38.70;35.88;46.95;;
66274;Laerm;58450;52.150;4.466;2022-12-07T03:49:17;38.49;35.44;47.10;;
66274;Laerm;58450;52.150;4.466;2022-12-07T03:51:51;39.52;35.79;49.89;;
66274;Laerm;58450;52.150;4.466;2022-12-07T03:54:25;39.41;35.57;46.73;;
66274;Laerm;58450;52.150;4.466;2022-12-07T03:56:54;48.68;35.42;72.29;;
66274;Laerm;58450;52.150;4.466;2022-12-07T03:59:23;39.54;35.30;51.48;;
66274;Laerm;58450;52.150;4.466;2022-12-07T04:01:56;40.25;36.74;48.91;;
66274;Laerm;58450;52.150;4.466;2022-12-07T04:04:24;41.03;37.08;54.64;;
66274;Laerm;58450;52.150;4.466;2022-12-07T04:06:52;45.32;37.90;60.41;;
66274;Laerm;58450;52.150;4.466;2022-12-07T04:09:19;40.50;36.74;56.69;;
66274;Laerm;58450;52.150;4.466;2022-12-07T04:11:46;40.65;35.83;50.21;;
66274;Laerm;58450;52.150;4.466;2022-12-07T04:14:14;43.26;36.41;54.83;;
66274;Laerm;58450;52.150;4.466;2022-12-07T04:16:48;41.81;36.36;49.25;;
66274;Laerm;58450;52.150;4.466;2022-12-07T04:19:18;40.06;36.39;51.20;;
66274;Laerm;58450;52.150;4.466;2022-12-07T04:21:46;40.80;35.85;52.26;;
66274;Laerm;58450;52.150;4.466;2022-12-07T04:24:14;41.77;37.72;50.30;;
66274;Laerm;58450;52.150;4.466;2022-12-07T04:26:42;40.58;36.36;53.07;;
66274;Laerm;58450;52.150;4.466;2022-12-07T04:29:10;48.66;35.81;69.82;;
66274;Laerm;58450;52.150;4.466;2022-12-07T04:31:38;45.34;36.06;63.86;;
66274;Laerm;58450;52.150;4.466;2022-12-07T04:34:06;39.24;35.34;43.49;;
66274;Laerm;58450;52.150;4.466;2022-12-07T04:36:35;43.47;36.81;57.87;;
66274;Laerm;58450;52.150;4.466;2022-12-07T04:39:03;41.86;36.41;54.77;;
66274;Laerm;58450;52.150;4.466;2022-12-07T04:41:31;42.30;36.77;54.37;;
66274;Laerm;58450;52.150;4.466;2022-12-07T04:44:01;49.21;37.50;63.63;;
66274;Laerm;58450;52.150;4.466;2022-12-07T04:46:31;43.98;37.70;56.95;;
66274;Laerm;58450;52.150;4.466;2022-12-07T04:48:59;43.23;37.32;54.39;;
66274;Laerm;58450;52.150;4.466;2022-12-07T04:51:28;41.31;37.57;48.39;;
66274;Laerm;58450;52.150;4.466;2022-12-07T04:53:57;42.66;36.47;55.06;;
66274;Laerm;58450;52.150;4.466;2022-12-07T04:56:25;48.85;38.27;67.61;;
66274;Laerm;58450;52.150;4.466;2022-12-07T04:58:53;46.31;40.01;56.71;;
66274;Laerm;58450;52.150;4.466;2022-12-07T05:01:21;46.83;39.62;58.15;;
66274;Laerm;58450;52.150;4.466;2022-12-07T05:03:49;44.05;39.23;57.08;;
66274;Laerm;58450;52.150;4.466;2022-12-07T05:06:17;46.47;39.92;63.65;;
66274;Laerm;58450;52.150;4.466;2022-12-07T05:08:44;47.52;39.38;59.60;;
66274;Laerm;58450;52.150;4.466;2022-12-07T05:11:13;43.95;39.28;50.78;;
66274;Laerm;58450;52.150;4.466;2022-12-07T05:14:03;52.33;38.55;69.74;;
66274;Laerm;58450;52.150;4.466;2022-12-07T05:16:30;48.48;39.96;63.39;;
66274;Laerm;58450;52.150;4.466;2022-12-07T05:18:58;49.99;40.33;67.42;;
66274;Laerm;58450;52.150;4.466;2022-12-07T05:21:25;45.04;40.37;52.15;;
66274;Laerm;58450;52.150;4.466;2022-12-07T05:23:52;50.70;41.05;63.57;;
66274;Laerm;58450;52.150;4.466;2022-12-07T05:26:21;48.48;40.18;65.02;;
66274;Laerm;58450;52.150;4.466;2022-12-07T05:28:50;47.90;40.48;60.66;;
66274;Laerm;58450;52.150;4.466;2022-12-07T05:31:17;53.15;39.76;68.85;;
66274;Laerm;58450;52.150;4.466;2022-12-07T05:33:45;45.68;40.40;56.78;;
66274;Laerm;58450;52.150;4.466;2022-12-07T05:36:12;43.91;39.10;59.16;;
66274;Laerm;58450;52.150;4.466;2022-12-07T05:38:40;51.02;40.61;63.42;;
66274;Laerm;58450;52.150;4.466;2022-12-07T05:41:08;44.54;40.37;52.26;;
66274;Laerm;58450;52.150;4.466;2022-12-07T05:43:58;53.36;41.18;71.95;;
66274;Laerm;58450;52.150;4.466;2022-12-07T05:46:26;47.60;40.87;69.94;;
66274;Laerm;58450;52.150;4.466;2022-12-07T05:48:53;51.71;39.27;66.55;;
66274;Laerm;58450;52.150;4.466;2022-12-07T05:51:20;47.34;39.71;66.54;;
66274;Laerm;58450;52.150;4.466;2022-12-07T05:53:48;48.34;41.20;65.83;;
66274;Laerm;58450;52.150;4.466;2022-12-07T05:56:15;52.99;41.38;74.18;;
66274;Laerm;58450;52.150;4.466;2022-12-07T05:58:42;53.25;41.26;70.20;;
66274;Laerm;58450;52.150;4.466;2022-12-07T06:01:43;48.71;40.44;63.78;;
66274;Laerm;58450;52.150;4.466;2022-12-07T06:04:10;46.62;41.43;55.55;;
66274;Laerm;58450;52.150;4.466;2022-12-07T06:06:37;46.80;41.03;70.31;;
66274;Laerm;58450;52.150;4.466;2022-12-07T06:09:05;52.38;41.12;66.24;;
66274;Laerm;58450;52.150;4.466;2022-12-07T06:11:32;45.76;40.76;54.07;;
66274;Laerm;58450;52.150;4.466;2022-12-07T06:14:17;52.81;42.99;68.13;;
66274;Laerm;58450;52.150;4.466;2022-12-07T06:16:45;48.08;43.11;58.19;;
66274;Laerm;58450;52.150;4.466;2022-12-07T06:19:12;53.58;44.10;66.13;;
66274;Laerm;58450;52.150;4.466;2022-12-07T06:21:40;49.93;43.28;63.09;;
66274;Laerm;58450;52.150;4.466;2022-12-07T06:24:08;57.00;44.36;71.88;;
66274;Laerm;58450;52.150;4.466;2022-12-07T06:26:36;55.52;46.68;71.53;;
66274;Laerm;58450;52.150;4.466;2022-12-07T06:29:03;52.39;43.82;67.03;;
66274;Laerm;58450;52.150;4.466;2022-12-07T06:31:30;51.90;44.34;65.56;;
66274;Laerm;58450;52.150;4.466;2022-12-07T06:34:00;51.11;43.90;65.76;;
66274;Laerm;58450;52.150;4.466;2022-12-07T06:36:27;50.09;44.79;67.32;;
66274;Laerm;58450;52.150;4.466;2022-12-07T06:38:55;52.87;44.51;68.57;;
66274;Laerm;58450;52.150;4.466;2022-12-07T06:41:23;52.47;45.13;68.47;;
66274;Laerm;58450;52.150;4.466;2022-12-07T06:43:50;53.97;44.06;65.64;;
66274;Laerm;58450;52.150;4.466;2022-12-07T06:46:17;49.87;43.71;60.03;;
66274;Laerm;58450;52.150;4.466;2022-12-07T06:48:46;52.46;44.94;65.86;;
66274;Laerm;58450;52.150;4.466;2022-12-07T06:51:14;50.56;45.29;60.74;;
66274;Laerm;58450;52.150;4.466;2022-12-07T06:53:42;54.75;45.63;67.71;;
66274;Laerm;58450;52.150;4.466;2022-12-07T06:56:09;51.58;45.40;65.71;;
66274;Laerm;58450;52.150;4.466;2022-12-07T06:58:36;49.63;44.62;57.67;;
66274;Laerm;58450;52.150;4.466;2022-12-07T07:01:08;52.92;46.01;67.72;;
66274;Laerm;58450;52.150;4.466;2022-12-07T07:03:35;51.44;44.27;62.81;;
66274;Laerm;58450;52.150;4.466;2022-12-07T07:06:03;50.16;45.50;65.19;;
66274;Laerm;58450;52.150;4.466;2022-12-07T07:08:32;52.62;46.57;63.88;;
66274;Laerm;58450;52.150;4.466;2022-12-07T07:10:59;51.14;45.84;64.87;;
66274;Laerm;58450;52.150;4.466;2022-12-07T07:13:27;55.25;47.04;71.47;;
66274;Laerm;58450;52.150;4.466;2022-12-07T07:15:54;55.38;47.45;69.71;;
66274;Laerm;58450;52.150;4.466;2022-12-07T07:18:21;54.51;46.98;66.04;;
66274;Laerm;58450;52.150;4.466;2022-12-07T07:20:50;51.82;46.94;61.97;;
66274;Laerm;58450;52.150;4.466;2022-12-07T07:23:17;53.05;45.84;66.11;;
66274;Laerm;58450;52.150;4.466;2022-12-07T07:25:46;56.81;45.64;68.27;;
66274;Laerm;58450;52.150;4.466;2022-12-07T07:28:14;52.15;44.74;62.44;;
66274;Laerm;58450;52.150;4.466;2022-12-07T07:30:42;55.23;47.34;70.04;;
66274;Laerm;58450;52.150;4.466;2022-12-07T07:33:10;54.25;46.05;67.17;;
66274;Laerm;58450;52.150;4.466;2022-12-07T07:35:37;53.87;45.98;72.65;;
66274;Laerm;58450;52.150;4.466;2022-12-07T07:38:05;51.83;45.28;66.14;;
66274;Laerm;58450;52.150;4.466;2022-12-07T07:40:33;53.59;48.29;68.53;;
66274;Laerm;58450;52.150;4.466;2022-12-07T07:43:02;56.18;47.82;68.23;;
66274;Laerm;58450;52.150;4.466;2022-12-07T07:45:30;56.38;47.02;68.69;;
66274;Laerm;58450;52.150;4.466;2022-12-07T07:47:57;54.80;47.76;67.24;;
66274;Laerm;58450;52.150;4.466;2022-12-07T07:50:24;52.70;47.71;64.52;;
66274;Laerm;58450;52.150;4.466;2022-12-07T07:52:51;53.65;46.65;70.09;;
66274;Laerm;58450;52.150;4.466;2022-12-07T07:55:19;54.64;46.77;66.45;;
66274;Laerm;58450;52.150;4.466;2022-12-07T07:57:46;53.29;45.94;72.68;;
66274;Laerm;58450;52.150;4.466;2022-12-07T08:00:16;52.29;45.98;65.73;;
66274;Laerm;58450;52.150;4.466;2022-12-07T08:02:44;54.24;45.41;72.64;;
66274;Laerm;58450;52.150;4.466;2022-12-07T08:05:12;51.07;46.25;60.46;;
66274;Laerm;58450;52.150;4.466;2022-12-07T08:07:40;50.97;45.51;59.99;;
66274;Laerm;58450;52.150;4.466;2022-12-07T08:10:10;54.58;46.07;70.83;;
66274;Laerm;58450;52.150;4.466;2022-12-07T08:12:39;54.62;46.64;67.53;;
66274;Laerm;58450;52.150;4.466;2022-12-07T08:15:30;52.39;44.53;65.96;;
66274;Laerm;58450;52.150;4.466;2022-12-07T08:17:57;53.68;45.46;66.80;;
66274;Laerm;58450;52.150;4.466;2022-12-07T08:20:25;55.21;49.27;65.21;;
66274;Laerm;58450;52.150;4.466;2022-12-07T08:22:52;54.67;47.24;70.59;;
66274;Laerm;58450;52.150;4.466;2022-12-07T08:25:19;54.32;47.73;75.20;;
66274;Laerm;58450;52.150;4.466;2022-12-07T08:27:48;55.60;47.71;74.65;;
66274;Laerm;58450;52.150;4.466;2022-12-07T08:30:16;54.86;46.84;73.49;;
66274;Laerm;58450;52.150;4.466;2022-12-07T08:32:45;53.01;45.80;70.27;;
66274;Laerm;58450;52.150;4.466;2022-12-07T08:35:14;52.67;45.33;69.55;;
66274;Laerm;58450;52.150;4.466;2022-12-07T08:37:41;51.98;46.20;68.98;;
66274;Laerm;58450;52.150;4.466;2022-12-07T08:40:10;58.70;47.71;83.93;;
66274;Laerm;58450;52.150;4.466;2022-12-07T08:42:41;57.49;46.82;75.71;;
66274;Laerm;58450;52.150;4.466;2022-12-07T08:45:12;54.71;47.51;67.63;;
66274;Laerm;58450;52.150;4.466;2022-12-07T08:47:42;55.36;48.87;70.30;;
66274;Laerm;58450;52.150;4.466;2022-12-07T08:50:14;57.55;48.79;70.93;;
66274;Laerm;58450;52.150;4.466;2022-12-07T08:52:41;53.65;47.33;64.29;;
66274;Laerm;58450;52.150;4.466;2022-12-07T08:55:10;54.15;47.10;68.99;;
66274;Laerm;58450;52.150;4.466;2022-12-07T08:57:39;54.38;46.79;68.00;;
66274;Laerm;58450;52.150;4.466;2022-12-07T09:00:07;55.78;46.03;68.17;;
66274;Laerm;58450;52.150;4.466;2022-12-07T09:02:35;55.57;47.88;73.78;;
66274;Laerm;58450;52.150;4.466;2022-12-07T09:05:03;57.03;48.33;70.22;;
66274;Laerm;58450;52.150;4.466;2022-12-07T09:07:33;55.31;49.13;63.55;;
66274;Laerm;58450;52.150;4.466;2022-12-07T09:10:00;53.96;49.00;66.87;;
66274;Laerm;58450;52.150;4.466;2022-12-07T09:12:28;53.92;49.23;64.53;;
66274;Laerm;58450;52.150;4.466;2022-12-07T09:14:55;55.07;48.44;69.87;;
66274;Laerm;58450;52.150;4.466;2022-12-07T09:17:23;59.84;49.22;72.06;;
66274;Laerm;58450;52.150;4.466;2022-12-07T09:19:50;53.93;48.50;63.33;;
66274;Laerm;58450;52.150;4.466;2022-12-07T09:22:17;60.18;50.26;68.06;;
66274;Laerm;58450;52.150;4.466;2022-12-07T09:24:46;59.67;49.06;68.38;;
66274;Laerm;58450;52.150;4.466;2022-12-07T09:27:13;56.94;50.13;68.83;;
66274;Laerm;58450;52.150;4.466;2022-12-07T09:29:41;58.58;49.85;71.25;;
66274;Laerm;58450;52.150;4.466;2022-12-07T09:32:08;61.50;48.88;75.41;;
66274;Laerm;58450;52.150;4.466;2022-12-07T09:34:36;53.27;47.64;65.73;;
66274;Laerm;58450;52.150;4.466;2022-12-07T09:37:03;58.12;49.38;78.86;;
66274;Laerm;58450;52.150;4.466;2022-12-07T09:39:30;52.01;45.91;64.67;;
66274;Laerm;58450;52.150;4.466;2022-12-07T09:42:02;54.42;45.26;70.80;;
66274;Laerm;58450;52.150;4.466;2022-12-07T09:44:31;54.05;47.61;64.62;;
66274;Laerm;58450;52.150;4.466;2022-12-07T09:46:58;53.07;46.67;74.71;;
66274;Laerm;58450;52.150;4.466;2022-12-07T09:49:28;55.44;45.92;78.83;;
66274;Laerm;58450;52.150;4.466;2022-12-07T09:52:01;54.65;47.00;70.40;;
66274;Laerm;58450;52.150;4.466;2022-12-07T09:54:29;55.25;45.87;68.91;;
66274;Laerm;58450;52.150;4.466;2022-12-07T09:56:59;52.10;46.06;65.37;;
66274;Laerm;58450;52.150;4.466;2022-12-07T09:59:26;53.00;47.45;64.92;;
66274;Laerm;58450;52.150;4.466;2022-12-07T10:01:55;53.55;47.19;66.33;;
66274;Laerm;58450;52.150;4.466;2022-12-07T10:04:24;53.13;45.28;72.83;;
66274;Laerm;58450;52.150;4.466;2022-12-07T10:06:52;56.02;51.10;68.13;;
66274;Laerm;58450;52.150;4.466;2022-12-07T10:09:21;54.30;48.75;65.64;;
66274;Laerm;58450;52.150;4.466;2022-12-07T10:12:06;52.31;47.52;68.10;;
66274;Laerm;58450;52.150;4.466;2022-12-07T10:14:37;53.24;46.80;65.22;;
66274;Laerm;58450;52.150;4.466;2022-12-07T10:17:29;54.36;49.72;63.91;;
66274;Laerm;58450;52.150;4.466;2022-12-07T10:20:12;55.59;48.37;66.03;;
66274;Laerm;58450;52.150;4.466;2022-12-07T10:22:58;53.80;46.83;69.25;;
66274;Laerm;58450;52.150;4.466;2022-12-07T10:25:28;52.43;44.84;65.69;;
66274;Laerm;58450;52.150;4.466;2022-12-07T10:28:12;51.43;45.35;69.62;;
66274;Laerm;58450;52.150;4.466;2022-12-07T10:30:52;50.14;45.51;60.44;;
66274;Laerm;58450;52.150;4.466;2022-12-07T10:33:31;51.50;46.29;62.71;;
66274;Laerm;58450;52.150;4.466;2022-12-07T10:35:59;53.71;47.26;63.72;;
66274;Laerm;58450;52.150;4.466;2022-12-07T10:38:28;54.88;48.60;62.55;;
66274;Laerm;58450;52.150;4.466;2022-12-07T10:41:05;54.13;47.88;63.21;;
66274;Laerm;58450;52.150;4.466;2022-12-07T10:43:34;54.73;46.79;67.68;;
66274;Laerm;58450;52.150;4.466;2022-12-07T10:46:35;51.76;46.49;62.91;;
66274;Laerm;58450;52.150;4.466;2022-12-07T10:49:24;53.93;47.55;73.92;;
66274;Laerm;58450;52.150;4.466;2022-12-07T10:52:01;52.72;47.82;67.78;;
66274;Laerm;58450;52.150;4.466;2022-12-07T10:54:39;53.38;46.83;67.00;;
66274;Laerm;58450;52.150;4.466;2022-12-07T10:57:32;53.87;47.75;64.18;;
66274;Laerm;58450;52.150;4.466;2022-12-07T11:00:15;52.96;46.88;66.95;;
66274;Laerm;58450;52.150;4.466;2022-12-07T11:02:58;53.00;48.02;66.32;;
66274;Laerm;58450;52.150;4.466;2022-12-07T11:05:36;51.91;47.95;65.22;;
66274;Laerm;58450;52.150;4.466;2022-12-07T11:08:15;54.26;47.42;66.53;;
66274;Laerm;58450;52.150;4.466;2022-12-07T11:10:50;59.27;46.54;82.58;;
66274;Laerm;58450;52.150;4.466;2022-12-07T11:13:27;68.89;45.80;91.18;;
66274;Laerm;58450;52.150;4.466;2022-12-07T11:16:05;63.80;46.86;84.85;;
66274;Laerm;58450;52.150;4.466;2022-12-07T11:18:43;57.49;47.43;79.96;;
66274;Laerm;58450;52.150;4.466;2022-12-07T11:21:20;54.29;47.41;66.58;;
66274;Laerm;58450;52.150;4.466;2022-12-07T11:23:59;53.10;47.24;63.44;;
66274;Laerm;58450;52.150;4.466;2022-12-07T11:26:46;53.30;47.71;72.10;;
66274;Laerm;58450;52.150;4.466;2022-12-07T11:29:30;52.76;47.59;69.33;;
66274;Laerm;58450;52.150;4.466;2022-12-07T11:32:13;53.20;47.90;66.52;;
66274;Laerm;58450;52.150;4.466;2022-12-07T11:34:51;52.89;47.74;69.43;;
66274;Laerm;58450;52.150;4.466;2022-12-07T11:37:25;53.24;46.44;66.62;;
66274;Laerm;58450;52.150;4.466;2022-12-07T11:40:00;54.41;47.72;68.57;;
66274;Laerm;58450;52.150;4.466;2022-12-07T11:42:31;53.30;48.33;66.45;;
66274;Laerm;58450;52.150;4.466;2022-12-07T11:45:09;54.10;47.34;66.62;;
66274;Laerm;58450;52.150;4.466;2022-12-07T11:47:45;56.76;48.10;71.98;;
66274;Laerm;58450;52.150;4.466;2022-12-07T11:50:24;54.39;48.28;64.72;;
66274;Laerm;58450;52.150;4.466;2022-12-07T11:52:57;54.70;47.58;69.57;;
66274;Laerm;58450;52.150;4.466;2022-12-07T11:55:29;57.04;50.23;70.49;;
66274;Laerm;58450;52.150;4.466;2022-12-07T11:58:04;62.51;53.73;74.11;;
66274;Laerm;58450;52.150;4.466;2022-12-07T12:00:32;61.08;53.67;73.35;;
66274;Laerm;58450;52.150;4.466;2022-12-07T12:03:09;59.05;48.97;66.72;;
66274;Laerm;58450;52.150;4.466;2022-12-07T12:05:39;55.53;48.25;71.18;;
66274;Laerm;58450;52.150;4.466;2022-12-07T12:08:13;53.11;47.10;66.98;;
66274;Laerm;58450;52.150;4.466;2022-12-07T12:10:54;59.39;48.17;92.15;;
66274;Laerm;58450;52.150;4.466;2022-12-07T12:13:47;56.76;47.53;70.69;;
66274;Laerm;58450;52.150;4.466;2022-12-07T12:16:44;52.91;46.65;67.07;;
66274;Laerm;58450;52.150;4.466;2022-12-07T12:19:25;54.00;48.97;63.10;;
66274;Laerm;58450;52.150;4.466;2022-12-07T12:22:06;55.55;47.49;68.38;;
66274;Laerm;58450;52.150;4.466;2022-12-07T12:24:39;53.76;48.19;66.63;;
66274;Laerm;58450;52.150;4.466;2022-12-07T12:27:09;54.26;49.11;73.75;;
66274;Laerm;58450;52.150;4.466;2022-12-07T12:29:39;54.69;46.81;66.68;;
66274;Laerm;58450;52.150;4.466;2022-12-07T12:32:15;54.02;48.17;65.65;;
66274;Laerm;58450;52.150;4.466;2022-12-07T12:35:01;54.49;48.57;64.67;;
66274;Laerm;58450;52.150;4.466;2022-12-07T12:37:44;54.56;48.61;65.26;;
66274;Laerm;58450;52.150;4.466;2022-12-07T12:40:41;53.43;48.40;63.30;;
66274;Laerm;58450;52.150;4.466;2022-12-07T12:43:43;57.62;49.83;67.03;;
66274;Laerm;58450;52.150;4.466;2022-12-07T12:55:18;56.42;49.03;67.00;;
66274;Laerm;58450;52.150;4.466;2022-12-07T13:03:55;61.44;50.51;80.27;;
66274;Laerm;58450;52.150;4.466;2022-12-07T13:06:34;60.63;49.31;75.27;;
66274;Laerm;58450;52.150;4.466;2022-12-07T13:09:04;59.75;49.02;74.70;;
66274;Laerm;58450;52.150;4.466;2022-12-07T13:11:46;59.69;48.67;73.46;;
66274;Laerm;58450;52.150;4.466;2022-12-07T13:14:39;55.26;47.65;68.92;;
66274;Laerm;58450;52.150;4.466;2022-12-07T13:17:08;53.99;47.23;73.08;;
66274;Laerm;58450;52.150;4.466;2022-12-07T13:19:57;54.82;47.84;76.12;;
66274;Laerm;58450;52.150;4.466;2022-12-07T13:22:52;53.45;47.88;71.59;;
66274;Laerm;58450;52.150;4.466;2022-12-07T13:25:30;56.23;46.47;69.84;;
66274;Laerm;58450;52.150;4.466;2022-12-07T13:28:10;57.83;47.17;67.40;;
66274;Laerm;58450;52.150;4.466;2022-12-07T13:30:45;56.56;48.18;62.19;;
66274;Laerm;58450;52.150;4.466;2022-12-07T13:33:15;55.94;49.09;70.09;;
66274;Laerm;58450;52.150;4.466;2022-12-07T13:35:44;57.80;49.37;70.19;;
66274;Laerm;58450;52.150;4.466;2022-12-07T13:38:25;58.09;49.31;67.31;;
66274;Laerm;58450;52.150;4.466;2022-12-07T13:41:14;55.24;47.23;67.48;;
66274;Laerm;58450;52.150;4.466;2022-12-07T13:43:49;56.45;49.29;66.34;;
66274;Laerm;58450;52.150;4.466;2022-12-07T13:46:19;55.74;49.36;67.97;;
66274;Laerm;58450;52.150;4.466;2022-12-07T13:48:50;55.80;47.76;66.37;;
66274;Laerm;58450;52.150;4.466;2022-12-07T13:51:20;53.95;47.69;62.82;;
66274;Laerm;58450;52.150;4.466;2022-12-07T13:53:50;53.88;46.89;70.15;;
66274;Laerm;58450;52.150;4.466;2022-12-07T13:56:21;53.01;47.47;73.12;;
66274;Laerm;58450;52.150;4.466;2022-12-07T13:58:50;56.44;48.43;69.43;;
66274;Laerm;58450;52.150;4.466;2022-12-07T14:01:17;52.41;48.24;65.30;;
66274;Laerm;58450;52.150;4.466;2022-12-07T14:03:44;54.94;48.12;65.52;;
66274;Laerm;58450;52.150;4.466;2022-12-07T14:06:16;53.77;48.13;68.20;;
66274;Laerm;58450;52.150;4.466;2022-12-07T14:08:45;53.44;47.97;64.52;;
66274;Laerm;58450;52.150;4.466;2022-12-07T14:11:17;52.24;47.70;67.18;;
66274;Laerm;58450;52.150;4.466;2022-12-07T14:13:58;54.49;48.34;71.11;;
66274;Laerm;58450;52.150;4.466;2022-12-07T14:16:28;54.76;48.10;69.62;;
66274;Laerm;58450;52.150;4.466;2022-12-07T14:18:57;55.53;47.85;70.08;;
66274;Laerm;58450;52.150;4.466;2022-12-07T14:21:27;53.79;47.13;71.18;;
66274;Laerm;58450;52.150;4.466;2022-12-07T14:24:17;52.88;46.93;66.80;;
66274;Laerm;58450;52.150;4.466;2022-12-07T14:26:46;54.64;48.55;71.77;;
66274;Laerm;58450;52.150;4.466;2022-12-07T14:29:32;52.70;47.44;69.82;;